Time;durP1;ratioP1;P1;durP2;ratioP2;P2;SDS_P1;SDS_P2;PMS_P1;PMS_P2;Temp;Humidity;BMP_temperature;BMP_pressure;BME280_temperature;BME280_humidity;BME280_pressure;Samples;Min_cycle;Max_cycle;Signal;HPM_P1;HPM_P2
2023/05/05 00:02:02;;;;;;;14.15;1.35;;;24.90;38.10;;;;;;5022166;28;20160;-69
2023/05/05 00:04:29;;;;;;;9.43;1.20;;;24.80;38.50;;;;;;5018059;28;20522;-69
2023/05/05 00:06:56;;;;;;;7.72;1.42;;;24.50;39.10;;;;;;5017569;28;20148;-66
2023/05/05 00:09:22;;;;;;;9.57;1.17;;;24.70;39.10;;;;;;5020795;28;20145;-66
2023/05/05 00:11:48;;;;;;;13.13;4.00;;;24.70;39.00;;;;;;5021184;28;20440;-67
2023/05/05 00:14:15;;;;;;;3.85;1.20;;;24.60;39.30;;;;;;5018494;28;20107;-68
2023/05/05 00:16:41;;;;;;;6.13;1.45;;;24.50;39.60;;;;;;5020488;28;20094;-67
2023/05/05 00:19:08;;;;;;;5.20;1.05;;;24.50;39.40;;;;;;5008749;28;20440;-68
2023/05/05 00:21:34;;;;;;;5.05;1.33;;;24.70;39.30;;;;;;5016705;28;20089;-69
2023/05/05 00:24:01;;;;;;;6.60;1.17;;;24.70;39.10;;;;;;5023508;28;20097;-68
2023/05/05 00:26:27;;;;;;;14.98;2.03;;;24.50;39.60;;;;;;5017438;28;20553;-66
2023/05/05 00:28:53;;;;;;;8.88;1.17;;;24.60;39.70;;;;;;5025824;28;20073;-66
2023/05/05 00:31:20;;;;;;;13.82;1.20;;;24.70;39.40;;;;;;5014149;28;20092;-68
2023/05/05 00:33:46;;;;;;;13.15;1.33;;;24.60;39.50;;;;;;5017059;28;20088;-69
2023/05/05 00:36:13;;;;;;;7.55;1.20;;;24.50;39.80;;;;;;5008401;28;20071;-68
2023/05/05 00:38:40;;;;;;;11.98;1.60;;;24.30;39.80;;;;;;5017701;28;20218;-67
2023/05/05 00:41:06;;;;;;;9.95;1.33;;;24.30;40.10;;;;;;5021067;28;20097;-68
2023/05/05 00:43:32;;;;;;;13.07;1.52;;;24.40;40.40;;;;;;5018978;28;20073;-65
2023/05/05 00:46:09;;;;;;;12.60;1.38;;;24.50;40.60;;;;;;5020195;28;20073;-68
2023/05/05 00:48:35;;;;;;;7.75;1.63;;;24.50;40.80;;;;;;5022731;28;20075;-70
2023/05/05 00:51:02;;;;;;;9.02;1.30;;;24.50;41.20;;;;;;5019463;28;20099;-70
2023/05/05 00:53:28;;;;;;;15.93;1.67;;;24.40;41.40;;;;;;5022148;28;20065;-64
2023/05/05 00:55:55;;;;;;;12.68;1.55;;;24.20;41.50;;;;;;5025741;28;20130;-68
2023/05/05 00:58:22;;;;;;;10.18;1.10;;;24.10;41.90;;;;;;5026253;28;20171;-68
2023/05/05 01:00:49;;;;;;;23.65;1.77;;;24.10;41.60;;;;;;5019263;28;20077;-67
2023/05/05 01:03:15;;;;;;;15.25;1.55;;;23.90;40.00;;;;;;5022174;28;20101;-68
2023/05/05 01:05:57;;;;;;;16.65;1.58;;;23.60;40.40;;;;;;5021048;28;20073;-70
2023/05/05 01:08:31;;;;;;;7.30;1.48;;;23.60;40.80;;;;;;5017970;28;20533;-70
2023/05/05 01:11:08;;;;;;;10.90;1.63;;;23.60;40.30;;;;;;5024040;28;20120;-69
2023/05/05 01:13:56;;;;;;;19.30;1.70;;;23.60;40.30;;;;;;5025354;28;20064;-70
2023/05/05 01:16:28;;;;;;;13.20;1.38;;;23.30;40.50;;;;;;5019573;28;20104;-71
2023/05/05 01:19:37;;;;;;;13.63;1.58;;;23.20;40.80;;;;;;5020495;28;20075;-70
2023/05/05 01:22:10;;;;;;;16.08;1.58;;;23.00;41.40;;;;;;5012878;28;20081;-71
2023/05/05 01:25:03;;;;;;;11.77;1.55;;;22.90;41.60;;;;;;5004865;28;20073;-69
2023/05/05 01:28:02;;;;;;;12.30;1.88;;;22.80;42.40;;;;;;4984517;28;20081;-67
2023/05/05 01:30:57;;;;;;;10.65;1.20;;;22.60;44.50;;;;;;5023226;28;20092;-66
2023/05/05 01:33:27;;;;;;;3.72;1.20;;;22.50;45.40;;;;;;5023155;28;20095;-67
2023/05/05 01:36:01;;;;;;;5.40;1.17;;;22.30;45.90;;;;;;5032430;28;20997;-66
2023/05/05 01:38:43;;;;;;;3.90;1.10;;;22.40;45.90;;;;;;5028117;28;20069;-67
2023/05/05 01:41:25;;;;;;;3.80;1.13;;;22.20;45.80;;;;;;5027427;28;20336;-65
2023/05/05 01:43:53;;;;;;;6.97;1.33;;;22.20;45.60;;;;;;5027528;28;20081;-67
2023/05/05 01:46:22;;;;;;;10.52;1.73;;;22.20;44.90;;;;;;5029731;28;20546;-66
2023/05/05 01:48:50;;;;;;;4.53;1.20;;;22.60;44.60;;;;;;5029940;28;20542;-65
2023/05/05 01:51:18;;;;;;;4.80;1.27;;;22.40;45.20;;;;;;5029002;28;20097;-67
2023/05/05 01:53:46;;;;;;;12.35;1.38;;;22.30;45.60;;;;;;5022999;28;20081;-66
2023/05/05 01:56:14;;;;;;;6.60;1.40;;;22.00;45.60;;;;;;5023643;28;20065;-63
2023/05/05 01:58:43;;;;;;;6.68;1.40;;;22.00;45.50;;;;;;5023670;28;20164;-66
2023/05/05 02:01:11;;;;;;;7.63;1.33;;;21.90;45.00;;;;;;5026640;28;20088;-64
2023/05/05 02:03:39;;;;;;;7.18;1.42;;;21.90;44.40;;;;;;5028473;28;20441;-67
2023/05/05 02:06:07;;;;;;;13.40;2.05;;;21.90;44.00;;;;;;5029305;28;20198;-66
2023/05/05 02:08:36;;;;;;;5.40;1.70;;;22.00;43.80;;;;;;5021312;28;20093;-65
2023/05/05 02:11:03;;;;;;;5.82;1.10;;;22.00;44.10;;;;;;5030540;28;20143;-70
2023/05/05 02:13:31;;;;;;;12.90;1.60;;;22.00;44.40;;;;;;5031311;28;20553;-66
2023/05/05 02:15:58;;;;;;;8.63;1.33;;;22.00;44.40;;;;;;5031083;28;20105;-72
2023/05/05 02:18:27;;;;;;;2.88;1.10;;;22.00;44.10;;;;;;5030834;28;20130;-65
2023/05/05 02:20:53;;;;;;;7.63;1.55;;;21.80;44.30;;;;;;5031261;28;20152;-63
2023/05/05 02:23:20;;;;;;;8.10;1.40;;;21.70;44.60;;;;;;5026641;28;20081;-66
2023/05/05 02:25:52;;;;;;;6.78;1.35;;;21.60;44.40;;;;;;5028869;28;20119;-67
2023/05/05 02:28:22;;;;;;;9.70;1.83;;;21.60;44.80;;;;;;5030133;28;20073;-65
2023/05/05 02:30:56;;;;;;;5.18;1.42;;;21.40;44.70;;;;;;5007128;28;20093;-66
2023/05/05 02:33:24;;;;;;;8.43;1.10;;;21.40;44.50;;;;;;5022226;28;20565;-65
2023/05/05 02:35:53;;;;;;;10.13;1.20;;;21.40;44.10;;;;;;5025300;28;20067;-70
2023/05/05 02:38:26;;;;;;;7.03;1.45;;;21.30;44.20;;;;;;5022341;28;20159;-66
2023/05/05 02:40:55;;;;;;;11.48;2.78;;;21.30;44.30;;;;;;5023194;28;20118;-66
2023/05/05 02:43:24;;;;;;;16.60;1.70;;;21.30;44.50;;;;;;5020169;28;20073;-65
2023/05/05 02:45:50;;;;;;;10.40;1.67;;;21.20;44.50;;;;;;5021822;28;20074;-65
2023/05/05 02:48:16;;;;;;;7.70;1.90;;;21.20;44.70;;;;;;5024373;28;20406;-73
2023/05/05 02:50:43;;;;;;;17.63;2.03;;;21.10;44.80;;;;;;5026050;28;20085;-67
2023/05/05 02:53:09;;;;;;;20.00;2.38;;;21.00;45.00;;;;;;5020158;28;20197;-66
2023/05/05 02:55:50;;;;;;;7.65;2.08;;;20.90;45.20;;;;;;5020562;28;20156;-67
2023/05/05 02:58:31;;;;;;;8.77;1.77;;;20.90;45.40;;;;;;5022299;28;20087;-73
2023/05/05 03:01:18;;;;;;;8.13;1.80;;;20.80;45.70;;;;;;5023594;28;20096;-68
2023/05/05 03:03:52;;;;;;;5.82;1.75;;;20.80;45.80;;;;;;5024442;28;20100;-66
2023/05/05 03:06:21;;;;;;;14.68;2.00;;;20.70;45.90;;;;;;5025425;28;20482;-68
2023/05/05 03:09:06;;;;;;;8.40;1.88;;;20.70;45.90;;;;;;5029536;28;20130;-69
2023/05/05 03:11:45;;;;;;;11.25;1.60;;;20.70;46.10;;;;;;5030143;28;20107;-66
2023/05/05 03:14:16;;;;;;;6.90;1.50;;;20.60;46.10;;;;;;5027300;28;20584;-67
2023/05/05 03:16:43;;;;;;;3.70;1.20;;;20.60;46.30;;;;;;5020420;28;20078;-67
2023/05/05 03:19:16;;;;;;;5.38;1.42;;;20.40;46.70;;;;;;5023357;28;20131;-65
2023/05/05 03:21:43;;;;;;;8.38;1.42;;;20.30;47.20;;;;;;5024423;28;20160;-64
2023/05/05 03:24:17;;;;;;;6.78;1.70;;;20.20;47.50;;;;;;5023129;28;20089;-67
2023/05/05 03:26:45;;;;;;;4.55;1.67;;;20.20;47.60;;;;;;5025032;28;20088;-66
2023/05/05 03:29:13;;;;;;;8.88;2.90;;;20.30;47.90;;;;;;5027754;28;20161;-66
2023/05/05 03:31:39;;;;;;;5.72;1.35;;;20.30;48.00;;;;;;5024387;28;20584;-68
2023/05/05 03:34:06;;;;;;;52.33;3.40;;;20.20;48.30;;;;;;5020720;28;20077;-66
2023/05/05 03:36:34;;;;;;;6.13;1.20;;;20.20;48.90;;;;;;5028847;28;20529;-65
2023/05/05 03:39:00;;;;;;;13.70;1.50;;;20.10;49.80;;;;;;5030326;28;20120;-64
2023/05/05 03:41:27;;;;;;;18.02;1.58;;;20.00;50.80;;;;;;5027129;28;20147;-67
2023/05/05 03:43:53;;;;;;;6.45;1.15;;;19.90;51.90;;;;;;5025506;28;20088;-70
2023/05/05 03:46:20;;;;;;;12.27;1.70;;;19.80;52.70;;;;;;5029310;28;20527;-67
2023/05/05 03:48:47;;;;;;;13.30;1.85;;;19.70;52.80;;;;;;5028921;28;20107;-65
2023/05/05 03:51:14;;;;;;;16.50;1.80;;;19.80;53.10;;;;;;5029170;28;20175;-67
2023/05/05 03:53:40;;;;;;;13.38;1.85;;;19.70;53.20;;;;;;5025053;28;20522;-66
2023/05/05 03:56:07;;;;;;;17.70;2.25;;;19.70;53.40;;;;;;5027587;28;20148;-67
2023/05/05 03:58:34;;;;;;;18.05;2.15;;;19.50;53.50;;;;;;5022895;28;20530;-68
2023/05/05 04:01:00;;;;;;;17.88;2.22;;;19.40;53.80;;;;;;5020708;28;20160;-67
2023/05/05 04:03:27;;;;;;;10.07;1.85;;;19.40;54.10;;;;;;5027895;28;20146;-66
2023/05/05 04:05:53;;;;;;;7.45;1.60;;;19.30;54.30;;;;;;5028714;28;20069;-67
2023/05/05 04:08:19;;;;;;;10.85;2.10;;;19.20;54.80;;;;;;5029180;28;20091;-69
2023/05/05 04:10:46;;;;;;;9.48;2.58;;;19.10;55.00;;;;;;5029447;28;20099;-64
2023/05/05 04:13:12;;;;;;;13.05;2.17;;;19.10;55.10;;;;;;5030001;28;20078;-66
2023/05/05 04:15:46;;;;;;;8.75;2.00;;;19.00;55.30;;;;;;5027515;28;20111;-65
2023/05/05 04:18:13;;;;;;;10.95;1.80;;;19.00;55.60;;;;;;5026516;28;20425;-68
2023/05/05 04:20:39;;;;;;;15.90;2.10;;;19.00;55.70;;;;;;5027722;28;20069;-65
2023/05/05 04:23:06;;;;;;;9.88;2.28;;;19.00;55.80;;;;;;5023364;28;20078;-66
2023/05/05 04:25:33;;;;;;;9.10;1.58;;;18.90;56.00;;;;;;5025937;28;20501;-67
2023/05/05 04:27:59;;;;;;;8.70;1.40;;;18.80;56.00;;;;;;5027710;28;20477;-68
2023/05/05 04:30:26;;;;;;;8.65;1.50;;;18.90;55.90;;;;;;5028583;28;20109;-66
2023/05/05 04:32:52;;;;;;;10.27;1.40;;;18.80;56.00;;;;;;5025800;28;20096;-67
2023/05/05 04:35:19;;;;;;;8.30;1.50;;;18.70;56.10;;;;;;5010735;28;20080;-66
2023/05/05 04:37:45;;;;;;;7.60;1.42;;;18.70;56.20;;;;;;5025794;28;20104;-67
2023/05/05 04:40:12;;;;;;;8.68;1.67;;;18.70;56.10;;;;;;5027763;28;20069;-66
2023/05/05 04:42:38;;;;;;;6.88;1.70;;;18.80;56.00;;;;;;5021764;28;20073;-71
2023/05/05 04:45:05;;;;;;;5.00;1.45;;;18.90;56.00;;;;;;5020628;28;20113;-72
2023/05/05 04:47:35;;;;;;;10.27;1.95;;;18.90;55.80;;;;;;5021537;28;20527;-70
2023/05/05 04:50:02;;;;;;;12.18;1.75;;;18.90;55.60;;;;;;5016883;28;20595;-67
2023/05/05 04:52:28;;;;;;;7.32;1.13;;;18.80;55.70;;;;;;5018709;28;20096;-66
2023/05/05 04:54:55;;;;;;;6.53;1.60;;;18.80;55.90;;;;;;5025025;28;20066;-66
2023/05/05 04:57:21;;;;;;;8.85;1.27;;;18.90;56.10;;;;;;5022037;28;20077;-68
2023/05/05 04:59:47;;;;;;;11.93;1.50;;;18.90;56.00;;;;;;5021103;28;20553;-68
2023/05/05 05:02:14;;;;;;;10.25;1.40;;;18.90;55.90;;;;;;5019837;28;20183;-70
2023/05/05 05:04:40;;;;;;;6.40;1.58;;;18.90;55.70;;;;;;5022530;28;20159;-68
2023/05/05 05:07:06;;;;;;;20.60;1.90;;;18.90;55.60;;;;;;5009943;28;20077;-69
2023/05/05 05:09:33;;;;;;;9.98;1.50;;;19.00;55.60;;;;;;5025009;28;20077;-69
2023/05/05 05:12:01;;;;;;;8.75;1.70;;;19.00;55.50;;;;;;5021657;28;20092;-68
2023/05/05 05:14:29;;;;;;;11.43;1.70;;;18.90;55.90;;;;;;5023414;28;20588;-68
2023/05/05 05:16:55;;;;;;;3.75;1.38;;;18.70;56.10;;;;;;5021960;28;20101;-66
2023/05/05 05:19:21;;;;;;;6.40;0.95;;;18.80;56.10;;;;;;5022162;28;20107;-66
2023/05/05 05:21:48;;;;;;;12.48;1.58;;;18.70;56.80;;;;;;5022000;28;20135;-67
2023/05/05 05:24:15;;;;;;;5.13;1.52;;;18.60;56.50;;;;;;5019248;28;20096;-69
2023/05/05 05:26:41;;;;;;;8.00;1.60;;;18.50;56.80;;;;;;5022919;28;21893;-67
2023/05/05 05:29:07;;;;;;;7.60;1.38;;;18.50;56.80;;;;;;5015441;28;20115;-67
2023/05/05 05:31:35;;;;;;;8.07;1.58;;;18.50;57.00;;;;;;5019562;28;20086;-65
2023/05/05 05:34:02;;;;;;;4.07;1.17;;;18.50;57.10;;;;;;5020859;28;20082;-67
2023/05/05 05:36:28;;;;;;;5.13;1.40;;;18.50;57.00;;;;;;5022667;28;20119;-68
2023/05/05 05:38:54;;;;;;;5.63;1.52;;;18.40;57.00;;;;;;5021168;28;20070;-68
2023/05/05 05:41:21;;;;;;;3.70;1.02;;;18.20;57.30;;;;;;5020630;28;20190;-67
2023/05/05 05:43:47;;;;;;;4.55;1.30;;;18.20;57.50;;;;;;5018078;28;20081;-67
2023/05/05 05:46:14;;;;;;;5.22;1.15;;;18.20;57.20;;;;;;5022008;28;20088;-67
2023/05/05 05:48:40;;;;;;;10.63;1.42;;;18.20;57.00;;;;;;5028750;28;20083;-68
2023/05/05 05:51:07;;;;;;;3.30;1.30;;;18.40;57.00;;;;;;5019703;28;20648;-68
2023/05/05 05:53:33;;;;;;;4.75;1.38;;;18.40;56.50;;;;;;5015898;28;20090;-67
2023/05/05 05:56:00;;;;;;;8.70;3.15;;;18.30;56.60;;;;;;5016842;28;20074;-68
2023/05/05 05:58:26;;;;;;;3.85;1.45;;;18.30;56.40;;;;;;5020308;28;20088;-67
2023/05/05 06:00:53;;;;;;;9.30;4.05;;;18.10;56.60;;;;;;5007505;28;20085;-67
2023/05/05 06:03:19;;;;;;;3.63;1.10;;;18.10;57.00;;;;;;5025701;28;20527;-68
2023/05/05 06:05:46;;;;;;;9.20;2.00;;;18.10;57.10;;;;;;5020721;28;20082;-68
2023/05/05 06:08:12;;;;;;;5.25;1.20;;;18.10;57.10;;;;;;5022792;28;20105;-69
2023/05/05 06:10:38;;;;;;;4.28;1.20;;;18.00;56.80;;;;;;5022485;28;20106;-67
2023/05/05 06:13:05;;;;;;;5.78;1.27;;;18.00;56.90;;;;;;5018895;28;20073;-66
2023/05/05 06:15:31;;;;;;;3.88;1.10;;;18.00;56.90;;;;;;5022620;28;20109;-68
2023/05/05 06:17:58;;;;;;;6.63;1.20;;;17.90;57.20;;;;;;5021255;28;20505;-67
2023/05/05 06:20:25;;;;;;;10.30;1.42;;;17.90;56.90;;;;;;5030082;28;20069;-67
2023/05/05 06:22:51;;;;;;;7.90;1.25;;;17.90;56.90;;;;;;5027062;28;20070;-68
2023/05/05 06:25:17;;;;;;;5.03;1.38;;;17.80;57.10;;;;;;5025263;28;20125;-68
2023/05/05 06:27:44;;;;;;;4.03;1.38;;;17.80;57.00;;;;;;5024314;28;20520;-68
2023/05/05 06:30:10;;;;;;;5.55;1.50;;;17.80;57.00;;;;;;5024392;28;20185;-65
2023/05/05 06:32:37;;;;;;;5.45;1.98;;;17.80;56.70;;;;;;5022378;28;20082;-67
2023/05/05 06:35:04;;;;;;;5.55;1.80;;;17.80;56.70;;;;;;5024352;28;20065;-66
2023/05/05 06:37:30;;;;;;;10.52;2.42;;;17.80;56.70;;;;;;5025559;28;20081;-69
2023/05/05 06:39:56;;;;;;;6.25;1.10;;;17.80;56.70;;;;;;5026772;28;20431;-68
2023/05/05 06:42:23;;;;;;;11.82;2.00;;;17.80;56.70;;;;;;5030540;28;20116;-68
2023/05/05 06:44:49;;;;;;;13.30;1.83;;;17.80;56.80;;;;;;5029879;28;20080;-68
2023/05/05 06:47:15;;;;;;;6.10;1.25;;;17.80;57.00;;;;;;5029935;28;20066;-70
2023/05/05 06:49:42;;;;;;;4.82;1.58;;;17.70;57.00;;;;;;5031766;28;20077;-69
2023/05/05 06:52:08;;;;;;;4.95;1.10;;;17.60;56.90;;;;;;5026360;28;20081;-67
2023/05/05 06:54:34;;;;;;;7.43;1.10;;;17.70;57.10;;;;;;5030658;28;20073;-64
2023/05/05 06:57:01;;;;;;;6.68;0.93;;;17.60;57.00;;;;;;5030399;28;20115;-67
2023/05/05 06:59:27;;;;;;;4.50;1.10;;;17.70;57.10;;;;;;5031032;28;20585;-69
2023/05/05 07:01:54;;;;;;;5.82;1.60;;;17.60;57.20;;;;;;5031940;28;20077;-66
2023/05/05 07:04:20;;;;;;;6.15;1.08;;;17.60;57.20;;;;;;5031934;28;20444;-69
2023/05/05 07:06:46;;;;;;;9.30;1.40;;;17.60;57.10;;;;;;5031183;28;20073;-66
2023/05/05 07:09:13;;;;;;;5.40;1.33;;;17.60;56.90;;;;;;5030155;28;20065;-68
2023/05/05 07:11:39;;;;;;;8.18;1.40;;;17.60;56.80;;;;;;5029353;28;20146;-68
2023/05/05 07:14:06;;;;;;;6.20;1.33;;;17.60;56.60;;;;;;5024048;28;20180;-67
2023/05/05 07:16:33;;;;;;;5.47;1.40;;;17.50;56.50;;;;;;5027696;28;20195;-67
2023/05/05 07:18:59;;;;;;;14.65;1.45;;;17.50;56.50;;;;;;5025744;28;20088;-67
2023/05/05 07:21:26;;;;;;;10.30;1.52;;;17.50;56.30;;;;;;5019325;28;20430;-68
2023/05/05 07:23:52;;;;;;;12.00;1.40;;;17.50;56.20;;;;;;5021606;28;20121;-66
2023/05/05 07:26:19;;;;;;;8.30;1.10;;;17.50;56.20;;;;;;5020521;28;20082;-66
2023/05/05 07:28:45;;;;;;;8.23;1.13;;;17.50;56.30;;;;;;5023567;28;20080;-67
2023/05/05 07:31:11;;;;;;;3.88;1.10;;;17.50;56.40;;;;;;5026442;28;20125;-68
2023/05/05 07:33:38;;;;;;;5.22;1.23;;;17.50;56.60;;;;;;5025220;28;20170;-66
2023/05/05 07:36:05;;;;;;;4.00;1.08;;;17.50;56.50;;;;;;5019813;28;20073;-67
2023/05/05 07:38:31;;;;;;;6.03;1.30;;;17.50;56.60;;;;;;5022559;28;20498;-66
2023/05/05 07:40:57;;;;;;;5.57;1.10;;;17.50;56.50;;;;;;5024066;28;20093;-66
2023/05/05 07:43:24;;;;;;;5.03;1.38;;;17.50;56.40;;;;;;5027525;28;20113;-68
2023/05/05 07:45:50;;;;;;;2.85;1.05;;;17.50;56.40;;;;;;5022927;28;20078;-68
2023/05/05 07:48:17;;;;;;;4.10;1.20;;;17.40;56.40;;;;;;5024876;28;20074;-67
2023/05/05 07:50:43;;;;;;;8.82;1.10;;;17.40;56.40;;;;;;5023763;28;20096;-69
2023/05/05 07:53:10;;;;;;;5.05;1.20;;;17.40;56.50;;;;;;5023488;28;20089;-68
2023/05/05 07:55:36;;;;;;;2.78;1.08;;;17.40;56.50;;;;;;5024366;28;20061;-68
2023/05/05 07:58:02;;;;;;;9.35;1.20;;;17.40;56.30;;;;;;5026037;28;20084;-67
2023/05/05 08:00:29;;;;;;;3.75;1.20;;;17.40;56.10;;;;;;5023933;28;20074;-69
2023/05/05 08:02:56;;;;;;;6.97;1.17;;;17.40;55.80;;;;;;5018906;28;20157;-69
2023/05/05 08:05:22;;;;;;;6.97;1.25;;;17.40;55.90;;;;;;5022231;28;20066;-70
2023/05/05 08:07:48;;;;;;;8.13;1.10;;;17.40;56.00;;;;;;5024287;28;20070;-68
2023/05/05 08:10:15;;;;;;;4.97;1.25;;;17.50;56.30;;;;;;5010452;28;20583;-68
2023/05/05 08:12:41;;;;;;;3.63;1.27;;;17.40;56.70;;;;;;5020959;28;20080;-67
2023/05/05 08:15:08;;;;;;;4.22;1.10;;;17.40;57.10;;;;;;5019765;28;20158;-69
2023/05/05 08:17:46;;;;;;;5.05;1.30;;;17.30;57.40;;;;;;5022483;28;20156;-65
2023/05/05 08:20:12;;;;;;;4.50;1.10;;;17.20;57.80;;;;;;5024519;28;20074;-67
2023/05/05 08:22:40;;;;;;;2.80;1.00;;;17.10;58.00;;;;;;5018794;28;20073;-68
2023/05/05 08:25:07;;;;;;;5.78;1.00;;;17.00;58.20;;;;;;5025107;28;20554;-68
2023/05/05 08:27:34;;;;;;;7.13;1.38;;;17.00;58.10;;;;;;5023861;28;20479;-69
2023/05/05 08:30:01;;;;;;;3.53;1.20;;;17.00;57.80;;;;;;5026523;28;20108;-67
2023/05/05 08:32:28;;;;;;;4.03;1.20;;;17.00;57.70;;;;;;5018694;28;20532;-69
2023/05/05 08:34:55;;;;;;;5.63;1.10;;;17.00;57.40;;;;;;5224152;22;20216;-64
2023/05/05 08:37:22;;;;;;;4.90;1.00;;;17.00;56.90;;;;;;5040856;28;20082;-65
2023/05/05 08:39:48;;;;;;;3.67;1.00;;;17.00;56.80;;;;;;5039961;28;21890;-64
2023/05/05 08:42:15;;;;;;;5.75;1.30;;;17.00;56.70;;;;;;5038651;28;20068;-64
2023/05/05 08:44:41;;;;;;;4.40;1.10;;;17.00;56.40;;;;;;5042371;28;20076;-64
2023/05/05 08:47:11;;;;;;;3.40;1.13;;;17.00;56.40;;;;;;5038966;28;20164;-64
2023/05/05 08:49:45;;;;;;;5.10;1.15;;;16.90;56.30;;;;;;5022554;28;20079;-64
2023/05/05 08:52:23;;;;;;;4.38;1.30;;;16.90;56.40;;;;;;5038308;28;20496;-65
2023/05/05 08:54:56;;;;;;;3.42;1.20;;;16.90;56.70;;;;;;5041849;28;20098;-65
2023/05/05 08:57:35;;;;;;;3.53;1.00;;;16.90;56.80;;;;;;5013098;28;20206;-64
2023/05/05 09:00:03;;;;;;;3.53;1.23;;;16.90;56.90;;;;;;5022263;28;20081;-63
2023/05/05 09:02:32;;;;;;;2.88;1.10;;;16.90;56.50;;;;;;5015851;28;20079;-62
2023/05/05 09:05:03;;;;;;;7.85;1.27;;;16.90;56.30;;;;;;5017886;28;20104;-64
2023/05/05 09:07:31;;;;;;;2.05;0.80;;;16.90;55.60;;;;;;5018366;28;20087;-62
2023/05/05 09:09:59;;;;;;;2.33;1.10;;;16.90;55.20;;;;;;5026026;28;20573;-64
2023/05/05 09:12:30;;;;;;;3.47;1.35;;;16.90;55.30;;;;;;5016229;28;20439;-65
2023/05/05 09:14:57;;;;;;;4.72;1.60;;;16.90;55.70;;;;;;5016089;28;20112;-64
2023/05/05 09:17:25;;;;;;;3.72;1.33;;;16.80;56.40;;;;;;5019396;28;20065;-62
2023/05/05 09:20:06;;;;;;;5.13;1.30;;;16.80;56.80;;;;;;5024986;28;20151;-65
2023/05/05 09:22:43;;;;;;;4.97;1.05;;;16.80;57.10;;;;;;5017776;28;20077;-64
2023/05/05 09:25:11;;;;;;;7.30;1.42;;;16.80;56.90;;;;;;5025181;28;20526;-65
2023/05/05 09:27:47;;;;;;;4.93;1.42;;;16.80;57.00;;;;;;5016518;28;20617;-64
2023/05/05 09:30:22;;;;;;;4.90;1.02;;;16.80;56.90;;;;;;5019205;28;20074;-64
2023/05/05 09:32:51;;;;;;;5.45;1.30;;;16.80;56.70;;;;;;5021443;28;20160;-63
2023/05/05 09:35:21;;;;;;;4.75;1.13;;;16.80;56.80;;;;;;5016875;28;20118;-64
2023/05/05 09:37:47;;;;;;;7.35;1.30;;;16.80;56.80;;;;;;5022102;28;20473;-66
2023/05/05 09:40:16;;;;;;;6.53;1.20;;;16.70;57.10;;;;;;5019644;28;20072;-64
2023/05/05 09:42:43;;;;;;;8.02;1.75;;;16.70;57.10;;;;;;5025829;28;20108;-61
2023/05/05 09:45:19;;;;;;;6.20;1.20;;;16.60;57.00;;;;;;5015513;28;20074;-64
2023/05/05 09:47:46;;;;;;;3.95;1.50;;;16.50;57.10;;;;;;5021511;28;20073;-64
2023/05/05 09:50:14;;;;;;;6.68;1.20;;;16.50;57.40;;;;;;5016906;28;20084;-64
2023/05/05 09:52:42;;;;;;;3.20;1.20;;;16.50;57.30;;;;;;5015586;28;20513;-64
2023/05/05 09:55:17;;;;;;;4.80;1.33;;;16.40;57.40;;;;;;5014810;28;20434;-63
2023/05/05 09:57:46;;;;;;;6.30;1.13;;;16.30;57.50;;;;;;5020099;28;20442;-65
2023/05/05 10:00:13;;;;;;;6.95;1.10;;;16.20;57.50;;;;;;5018298;28;20094;-62
2023/05/05 10:02:40;;;;;;;4.30;1.35;;;16.20;57.50;;;;;;5023998;28;20090;-64
2023/05/05 10:05:14;;;;;;;3.80;1.23;;;16.20;57.60;;;;;;5020196;28;20542;-62
2023/05/05 10:07:42;;;;;;;7.22;1.52;;;16.20;57.80;;;;;;5027874;28;20457;-64
2023/05/05 10:10:14;;;;;;;5.63;1.48;;;16.20;57.60;;;;;;5020915;28;20070;-62
2023/05/05 10:12:41;;;;;;;3.83;1.20;;;16.20;57.60;;;;;;5020975;28;20084;-65
2023/05/05 10:15:09;;;;;;;15.75;8.65;;;16.10;57.90;;;;;;5019441;28;20086;-63
2023/05/05 10:17:47;;;;;;;3.75;1.35;;;16.00;57.80;;;;;;5023967;28;20071;-62
2023/05/05 10:20:15;;;;;;;3.42;1.10;;;16.00;58.00;;;;;;5020110;28;20066;-62
2023/05/05 10:22:52;;;;;;;8.20;1.20;;;16.00;58.00;;;;;;5021015;28;20069;-63
2023/05/05 10:25:29;;;;;;;4.00;1.58;;;16.00;58.00;;;;;;5017161;28;20111;-62
2023/05/05 10:28:00;;;;;;;4.40;1.15;;;15.90;57.80;;;;;;5025506;28;20088;-62
2023/05/05 10:30:33;;;;;;;3.53;0.90;;;16.00;57.80;;;;;;5013833;28;20446;-64
2023/05/05 10:33:14;;;;;;;5.18;1.38;;;16.00;57.80;;;;;;5026299;28;20070;-60
2023/05/05 10:35:43;;;;;;;6.68;1.40;;;15.90;57.70;;;;;;5020630;28;20101;-62
2023/05/05 10:38:11;;;;;;;4.65;1.23;;;15.90;57.60;;;;;;5027040;28;20101;-64
2023/05/05 10:40:44;;;;;;;8.60;1.67;;;15.90;57.60;;;;;;5016588;28;20152;-63
2023/05/05 10:43:13;;;;;;;5.75;1.20;;;15.90;57.40;;;;;;5025172;28;20170;-62
2023/05/05 10:45:40;;;;;;;3.38;1.08;;;15.80;57.70;;;;;;5018485;28;20081;-63
2023/05/05 10:48:11;;;;;;;3.13;1.42;;;15.80;57.90;;;;;;5014217;28;20093;-62
2023/05/05 10:51:14;;;;;;;6.30;1.15;;;15.80;58.10;;;;;;5021250;28;20537;-63
2023/05/05 10:53:51;;;;;;;11.57;1.33;;;15.80;58.10;;;;;;4968967;28;20547;-63
2023/05/05 10:56:30;;;;;;;5.50;1.42;;;15.80;58.00;;;;;;4968440;28;20097;-61
2023/05/05 10:58:56;;;;;;;9.57;1.73;;;15.80;57.70;;;;;;4968712;28;20083;-60
2023/05/05 11:01:31;;;;;;;5.60;1.05;;;15.80;57.70;;;;;;4968707;28;20079;-64
2023/05/05 11:04:19;;;;;;;3.05;1.10;;;15.80;57.60;;;;;;4968730;28;20105;-64
2023/05/05 11:07:26;;;;;;;1.98;1.00;;;15.80;57.50;;;;;;4967915;28;20113;-63
2023/05/05 11:10:02;;;;;;;3.85;1.33;;;15.80;57.10;;;;;;4935819;29;20099;-63
2023/05/05 11:12:30;;;;;;;6.13;1.45;;;15.80;56.80;;;;;;4934466;29;20092;-63
2023/05/05 11:15:30;;;;;;;5.05;1.30;;;15.90;56.40;;;;;;4935708;29;20083;-63
2023/05/05 11:17:58;;;;;;;8.30;1.48;;;15.90;56.50;;;;;;4936455;29;20760;-61
2023/05/05 11:20:47;;;;;;;8.35;1.40;;;15.90;56.50;;;;;;4934579;29;20088;-63
2023/05/05 11:23:19;;;;;;;4.40;0.93;;;15.90;56.60;;;;;;4926220;29;20140;-61
2023/05/05 11:25:46;;;;;;;3.70;1.02;;;15.80;56.60;;;;;;4934062;29;20281;-63
2023/05/05 11:28:17;;;;;;;5.22;1.02;;;15.80;56.70;;;;;;4938385;28;20084;-63
2023/05/05 11:30:55;;;;;;;4.13;1.13;;;15.80;56.50;;;;;;4992651;28;20078;-63
2023/05/05 11:33:38;;;;;;;2.95;1.10;;;15.80;56.30;;;;;;4984933;28;20089;-61
2023/05/05 11:36:06;;;;;;;5.03;1.23;;;15.80;56.30;;;;;;4990170;28;20192;-62
2023/05/05 11:38:50;;;;;;;8.20;1.10;;;15.80;56.10;;;;;;4991326;28;20165;-63
2023/05/05 11:41:31;;;;;;;6.10;1.73;;;15.90;55.90;;;;;;5013503;28;20125;-64
2023/05/05 11:44:19;;;;;;;5.35;1.20;;;15.90;55.90;;;;;;5027505;28;20072;-62
2023/05/05 11:46:51;;;;;;;3.42;1.00;;;15.90;55.90;;;;;;5020375;28;20437;-64
2023/05/05 11:49:27;;;;;;;3.45;1.10;;;15.80;55.90;;;;;;5016949;28;20074;-62
2023/05/05 11:52:02;;;;;;;6.93;1.00;;;15.80;55.90;;;;;;5016299;28;20217;-62
2023/05/05 11:54:30;;;;;;;1.92;0.80;;;15.80;56.00;;;;;;5018521;28;20116;-64
2023/05/05 11:56:58;;;;;;;4.13;1.08;;;15.80;56.00;;;;;;5020757;28;20160;-63
2023/05/05 11:59:25;;;;;;;3.40;0.85;;;15.80;56.00;;;;;;5018139;28;20100;-62
2023/05/05 12:01:51;;;;;;;3.95;1.10;;;15.70;56.00;;;;;;5014073;28;20557;-63
2023/05/05 12:04:18;;;;;;;4.28;0.90;;;15.70;56.30;;;;;;5015419;28;20161;-62
2023/05/05 12:06:45;;;;;;;10.75;1.40;;;15.60;56.50;;;;;;5019359;28;20074;-64
2023/05/05 12:09:16;;;;;;;3.90;1.33;;;15.50;56.60;;;;;;5017955;28;20090;-62
2023/05/05 12:12:02;;;;;;;6.35;1.02;;;15.50;56.90;;;;;;5013454;28;20156;-63
2023/05/05 12:14:29;;;;;;;6.85;1.00;;;15.60;56.90;;;;;;5015563;28;20072;-62
2023/05/05 12:16:56;;;;;;;3.47;1.00;;;15.40;57.10;;;;;;5021470;28;20079;-60
2023/05/05 12:19:23;;;;;;;3.55;1.17;;;15.40;57.30;;;;;;5015521;28;20150;-62
2023/05/05 12:21:52;;;;;;;4.60;1.40;;;15.50;57.30;;;;;;5018424;28;20530;-62
2023/05/05 12:24:19;;;;;;;2.47;0.90;;;15.50;57.30;;;;;;5016531;28;20536;-63
2023/05/05 12:26:45;;;;;;;;;;;15.40;58.10;;;;;;5021244;28;20125;-61
2023/05/05 12:29:11;;;;;;;6.38;1.20;;;15.40;57.70;;;;;;5020446;28;19958;-61
2023/05/05 12:31:40;;;;;;;4.45;1.10;;;15.30;57.90;;;;;;5011903;28;20082;-61
2023/05/05 12:34:09;;;;;;;7.07;1.40;;;15.30;58.10;;;;;;5018358;28;20075;-62
2023/05/05 12:36:36;;;;;;;3.33;1.08;;;15.20;58.00;;;;;;5018139;28;20106;-63
2023/05/05 12:39:04;;;;;;;7.80;1.30;;;15.30;58.10;;;;;;5018696;28;20092;-63
2023/05/05 12:41:31;;;;;;;2.47;1.15;;;15.30;57.80;;;;;;5014298;28;20267;-63
2023/05/05 12:43:59;;;;;;;7.10;1.30;;;15.40;57.50;;;;;;5018995;28;20109;-63
2023/05/05 12:46:30;;;;;;;7.40;1.30;;;15.40;57.30;;;;;;5018210;28;20066;-62
2023/05/05 12:49:03;;;;;;;4.25;1.33;;;15.40;56.80;;;;;;5023234;28;20069;-63
2023/05/05 12:51:49;;;;;;;5.60;1.15;;;15.50;56.70;;;;;;5015907;28;20177;-63
2023/05/05 12:54:16;;;;;;;5.07;1.02;;;15.50;56.50;;;;;;5015928;28;20160;-63
2023/05/05 12:56:45;;;;;;;6.13;1.25;;;15.50;56.70;;;;;;5016284;28;20108;-63
2023/05/05 12:59:21;;;;;;;7.93;0.90;;;15.50;56.70;;;;;;5012930;28;20520;-61